Etusivu
METAR-TAF:

METAR-TAF

Lentoasemat :

Cuenca, Ecuador

Leveyspiiri: 02-53-22S, Pituuspiiri: 078-59-04W, korkeus merenpinnasta: 2532 m

Tämänhetkinen sää

Tämä raportti tehtiin 40 minuuttia sitten, kello 13.00 UTC
tyyntä
Lämpötila 13°C
Kosteus 100%
Ilmanpaine 1029 hPa
Näkyvyys 10 km tai enemmän
Muutamia pilviä 300 ft:n korkeudessa
Hajanaisia pilviä 1000 ft:n korkeudessa
Pilvistä 4000 ft:n korkeudessa
heikkoa sadetta

METAR: SECU 021300Z 00000KT 9999 -RA FEW003 SCT010 OVC040 13/13 Q1029

Aika: 08:40 (13:40 UTC)


TAF: puuttuu

Säähavainnot ja -ennusteet yli 4000 lentoasemalta (METAR- ja TAF-raportit).

Käytössä olevat sääasemat on merkitty karttaan keltaisilla ja punaisilla pisteillä.

Aseta hiiri pisteen päälle nähdäksesi sääaseman nimen.

Klikkaa sitten nähdäksesi säähavainnot ja -ennusteet.

Kartan vaihtaminen: klikkaa mustalla rastilla varustettuja vihreitä pisteitä, niin voit zoomata sisään; viivalla varustettua vihreää pistettä, niin voit zoomata ulos tai vihreitä nuolia, niin pääset viereisille kartoille.


METAR-TAF: